sensor_id;sensor_type;location;lat;lon;timestamp;temperature;humidity
1830;DHT22;914;48.118;11.600;2023-04-28T00:00:44;11.60;96.10
1830;DHT22;914;48.118;11.600;2023-04-28T00:03:12;11.50;96.40
1830;DHT22;914;48.118;11.600;2023-04-28T00:05:38;11.60;96.50
1830;DHT22;914;48.118;11.600;2023-04-28T00:08:04;11.60;96.90
1830;DHT22;914;48.118;11.600;2023-04-28T00:10:30;11.60;96.50
1830;DHT22;914;48.118;11.600;2023-04-28T00:12:56;11.70;96.40
1830;DHT22;914;48.118;11.600;2023-04-28T00:15:21;11.70;96.30
1830;DHT22;914;48.118;11.600;2023-04-28T00:17:47;11.60;96.40
1830;DHT22;914;48.118;11.600;2023-04-28T00:20:15;11.60;96.40
1830;DHT22;914;48.118;11.600;2023-04-28T00:22:41;11.60;96.50
1830;DHT22;914;48.118;11.600;2023-04-28T00:25:07;11.60;96.40
1830;DHT22;914;48.118;11.600;2023-04-28T00:27:33;11.50;96.60
1830;DHT22;914;48.118;11.600;2023-04-28T00:29:59;11.40;96.80
1830;DHT22;914;48.118;11.600;2023-04-28T00:32:25;11.40;97.10
1830;DHT22;914;48.118;11.600;2023-04-28T00:34:51;11.40;97.20
1830;DHT22;914;48.118;11.600;2023-04-28T00:37:21;11.30;97.20
1830;DHT22;914;48.118;11.600;2023-04-28T00:39:46;11.40;97.50
1830;DHT22;914;48.118;11.600;2023-04-28T00:42:15;11.50;97.20
1830;DHT22;914;48.118;11.600;2023-04-28T00:44:41;11.50;97.10
1830;DHT22;914;48.118;11.600;2023-04-28T00:47:08;11.60;97.00
1830;DHT22;914;48.118;11.600;2023-04-28T00:49:35;11.60;96.70
1830;DHT22;914;48.118;11.600;2023-04-28T00:52:04;11.60;96.60
1830;DHT22;914;48.118;11.600;2023-04-28T00:54:32;11.60;96.70
1830;DHT22;914;48.118;11.600;2023-04-28T00:56:58;11.60;96.70
1830;DHT22;914;48.118;11.600;2023-04-28T00:59:23;11.50;97.00
1830;DHT22;914;48.118;11.600;2023-04-28T01:01:49;11.60;97.10
1830;DHT22;914;48.118;11.600;2023-04-28T01:04:17;11.60;96.80
1830;DHT22;914;48.118;11.600;2023-04-28T01:06:45;11.60;97.00
1830;DHT22;914;48.118;11.600;2023-04-28T01:09:11;11.50;97.00
1830;DHT22;914;48.118;11.600;2023-04-28T01:11:37;11.60;97.10
1830;DHT22;914;48.118;11.600;2023-04-28T01:14:03;11.70;97.10
1830;DHT22;914;48.118;11.600;2023-04-28T01:16:29;11.60;96.80
1830;DHT22;914;48.118;11.600;2023-04-28T01:18:57;11.60;97.00
1830;DHT22;914;48.118;11.600;2023-04-28T01:21:27;11.60;97.10
1830;DHT22;914;48.118;11.600;2023-04-28T01:23:56;11.60;97.00
1830;DHT22;914;48.118;11.600;2023-04-28T01:26:22;11.70;97.10
1830;DHT22;914;48.118;11.600;2023-04-28T01:28:48;11.70;96.90
1830;DHT22;914;48.118;11.600;2023-04-28T01:31:13;11.70;96.90
1830;DHT22;914;48.118;11.600;2023-04-28T01:33:39;11.70;96.80
1830;DHT22;914;48.118;11.600;2023-04-28T01:36:05;11.80;96.90
1830;DHT22;914;48.118;11.600;2023-04-28T01:38:31;11.80;96.60
1830;DHT22;914;48.118;11.600;2023-04-28T01:40:59;11.80;96.60
1830;DHT22;914;48.118;11.600;2023-04-28T01:43:27;11.80;96.70
1830;DHT22;914;48.118;11.600;2023-04-28T01:45:53;11.80;96.70
1830;DHT22;914;48.118;11.600;2023-04-28T01:48:18;11.70;96.90
1830;DHT22;914;48.118;11.600;2023-04-28T01:50:44;11.70;97.00
1830;DHT22;914;48.118;11.600;2023-04-28T01:53:10;11.70;97.10
1830;DHT22;914;48.118;11.600;2023-04-28T01:55:40;11.70;97.20
1830;DHT22;914;48.118;11.600;2023-04-28T01:58:06;11.70;97.10
1830;DHT22;914;48.118;11.600;2023-04-28T02:00:32;11.80;97.10
1830;DHT22;914;48.118;11.600;2023-04-28T02:02:57;11.90;96.80
1830;DHT22;914;48.118;11.600;2023-04-28T02:05:24;11.80;96.70
1830;DHT22;914;48.118;11.600;2023-04-28T02:07:50;11.80;96.80
1830;DHT22;914;48.118;11.600;2023-04-28T02:10:16;11.80;97.00
1830;DHT22;914;48.118;11.600;2023-04-28T02:12:41;11.80;97.00
1830;DHT22;914;48.118;11.600;2023-04-28T02:15:07;11.70;97.00
1830;DHT22;914;48.118;11.600;2023-04-28T02:17:33;11.70;97.20
1830;DHT22;914;48.118;11.600;2023-04-28T02:19:59;11.80;97.10
1830;DHT22;914;48.118;11.600;2023-04-28T02:22:25;11.80;97.20
1830;DHT22;914;48.118;11.600;2023-04-28T02:24:51;11.90;97.20
1830;DHT22;914;48.118;11.600;2023-04-28T02:27:17;12.20;96.70
1830;DHT22;914;48.118;11.600;2023-04-28T02:29:43;12.10;96.40
1830;DHT22;914;48.118;11.600;2023-04-28T02:32:08;12.20;96.50
1830;DHT22;914;48.118;11.600;2023-04-28T02:34:34;12.00;96.60
1830;DHT22;914;48.118;11.600;2023-04-28T02:37:00;11.90;96.90
1830;DHT22;914;48.118;11.600;2023-04-28T02:39:26;12.20;97.10
1830;DHT22;914;48.118;11.600;2023-04-28T02:41:55;12.10;97.20
1830;DHT22;914;48.118;11.600;2023-04-28T02:44:22;11.90;97.60
1830;DHT22;914;48.118;11.600;2023-04-28T02:46:48;11.90;97.70
1830;DHT22;914;48.118;11.600;2023-04-28T02:49:14;11.70;98.30
1830;DHT22;914;48.118;11.600;2023-04-28T02:51:40;11.70;98.60
1830;DHT22;914;48.118;11.600;2023-04-28T02:54:05;11.90;99.30
1830;DHT22;914;48.118;11.600;2023-04-28T02:56:34;11.90;98.90
1830;DHT22;914;48.118;11.600;2023-04-28T02:59:00;11.90;99.10
1830;DHT22;914;48.118;11.600;2023-04-28T03:01:26;11.80;99.30
1830;DHT22;914;48.118;11.600;2023-04-28T03:03:51;11.70;99.30
1830;DHT22;914;48.118;11.600;2023-04-28T03:06:17;11.60;99.70
1830;DHT22;914;48.118;11.600;2023-04-28T03:08:43;11.50;99.60
1830;DHT22;914;48.118;11.600;2023-04-28T03:11:08;11.50;99.90
1830;DHT22;914;48.118;11.600;2023-04-28T03:13:35;11.60;99.90
1830;DHT22;914;48.118;11.600;2023-04-28T03:16:01;11.80;99.50
1830;DHT22;914;48.118;11.600;2023-04-28T03:18:27;11.80;99.50
1830;DHT22;914;48.118;11.600;2023-04-28T03:20:53;11.60;99.70
1830;DHT22;914;48.118;11.600;2023-04-28T03:23:18;11.60;99.90
1830;DHT22;914;48.118;11.600;2023-04-28T03:25:44;11.50;99.90
1830;DHT22;914;48.118;11.600;2023-04-28T03:28:09;11.50;99.90
1830;DHT22;914;48.118;11.600;2023-04-28T03:30:36;11.60;99.90
1830;DHT22;914;48.118;11.600;2023-04-28T03:33:01;11.80;99.90
1830;DHT22;914;48.118;11.600;2023-04-28T03:35:27;12.00;99.90
1830;DHT22;914;48.118;11.600;2023-04-28T03:37:52;11.90;99.80
1830;DHT22;914;48.118;11.600;2023-04-28T03:40:18;12.00;99.90
1830;DHT22;914;48.118;11.600;2023-04-28T03:42:44;12.00;99.90
1830;DHT22;914;48.118;11.600;2023-04-28T03:45:10;12.10;99.90
1830;DHT22;914;48.118;11.600;2023-04-28T03:47:36;12.00;99.90
1830;DHT22;914;48.118;11.600;2023-04-28T03:50:02;11.90;99.90
1830;DHT22;914;48.118;11.600;2023-04-28T03:52:28;12.00;99.90
1830;DHT22;914;48.118;11.600;2023-04-28T03:54:53;11.80;99.90
1830;DHT22;914;48.118;11.600;2023-04-28T03:57:19;11.80;99.90
1830;DHT22;914;48.118;11.600;2023-04-28T03:59:45;11.80;99.90
1830;DHT22;914;48.118;11.600;2023-04-28T04:02:10;11.90;99.90
1830;DHT22;914;48.118;11.600;2023-04-28T04:04:36;11.70;99.90
1830;DHT22;914;48.118;11.600;2023-04-28T04:07:02;11.60;99.90
1830;DHT22;914;48.118;11.600;2023-04-28T04:09:28;11.70;99.90
1830;DHT22;914;48.118;11.600;2023-04-28T04:11:54;11.80;99.90
1830;DHT22;914;48.118;11.600;2023-04-28T04:14:20;11.80;99.90
1830;DHT22;914;48.118;11.600;2023-04-28T04:16:45;12.10;99.90
1830;DHT22;914;48.118;11.600;2023-04-28T04:19:12;12.30;99.90
1830;DHT22;914;48.118;11.600;2023-04-28T04:21:38;12.20;99.90
1830;DHT22;914;48.118;11.600;2023-04-28T04:24:03;12.10;99.90
1830;DHT22;914;48.118;11.600;2023-04-28T04:26:29;12.00;99.90
1830;DHT22;914;48.118;11.600;2023-04-28T04:28:55;12.10;99.90
1830;DHT22;914;48.118;11.600;2023-04-28T04:31:21;12.20;99.90
1830;DHT22;914;48.118;11.600;2023-04-28T04:33:47;12.10;99.90
1830;DHT22;914;48.118;11.600;2023-04-28T04:36:13;11.90;99.90
1830;DHT22;914;48.118;11.600;2023-04-28T04:38:39;11.80;99.90
1830;DHT22;914;48.118;11.600;2023-04-28T04:41:05;11.90;99.90
1830;DHT22;914;48.118;11.600;2023-04-28T04:43:30;11.90;99.90
1830;DHT22;914;48.118;11.600;2023-04-28T04:45:56;11.40;99.90
1830;DHT22;914;48.118;11.600;2023-04-28T04:48:21;11.40;99.90
1830;DHT22;914;48.118;11.600;2023-04-28T04:50:47;11.50;99.90
1830;DHT22;914;48.118;11.600;2023-04-28T04:53:13;11.40;99.90
1830;DHT22;914;48.118;11.600;2023-04-28T04:55:39;11.40;99.90
1830;DHT22;914;48.118;11.600;2023-04-28T04:58:05;11.50;99.90
1830;DHT22;914;48.118;11.600;2023-04-28T05:00:30;11.70;99.90
1830;DHT22;914;48.118;11.600;2023-04-28T05:02:56;12.00;99.90
1830;DHT22;914;48.118;11.600;2023-04-28T05:05:22;12.10;99.90
1830;DHT22;914;48.118;11.600;2023-04-28T05:07:47;12.30;99.90
1830;DHT22;914;48.118;11.600;2023-04-28T05:10:13;12.60;99.90
1830;DHT22;914;48.118;11.600;2023-04-28T05:12:39;12.60;99.90
1830;DHT22;914;48.118;11.600;2023-04-28T05:15:05;12.40;99.90
1830;DHT22;914;48.118;11.600;2023-04-28T05:17:32;12.40;99.90
1830;DHT22;914;48.118;11.600;2023-04-28T05:19:58;12.60;99.90
1830;DHT22;914;48.118;11.600;2023-04-28T05:22:23;12.80;99.90
1830;DHT22;914;48.118;11.600;2023-04-28T05:24:50;12.90;99.90
1830;DHT22;914;48.118;11.600;2023-04-28T05:27:17;12.90;99.90
1830;DHT22;914;48.118;11.600;2023-04-28T05:29:45;12.80;99.90
1830;DHT22;914;48.118;11.600;2023-04-28T05:32:11;12.70;99.90
1830;DHT22;914;48.118;11.600;2023-04-28T05:34:37;12.90;99.90
1830;DHT22;914;48.118;11.600;2023-04-28T05:37:02;12.90;99.90
1830;DHT22;914;48.118;11.600;2023-04-28T05:39:28;12.60;99.90
1830;DHT22;914;48.118;11.600;2023-04-28T05:41:53;12.70;99.90
1830;DHT22;914;48.118;11.600;2023-04-28T05:44:19;12.70;99.90
1830;DHT22;914;48.118;11.600;2023-04-28T05:46:45;12.70;99.90
1830;DHT22;914;48.118;11.600;2023-04-28T05:49:11;12.60;99.90
1830;DHT22;914;48.118;11.600;2023-04-28T05:51:36;12.80;99.90
1830;DHT22;914;48.118;11.600;2023-04-28T05:54:03;12.80;99.90
1830;DHT22;914;48.118;11.600;2023-04-28T05:56:28;12.70;99.90
1830;DHT22;914;48.118;11.600;2023-04-28T05:58:54;12.70;99.90
1830;DHT22;914;48.118;11.600;2023-04-28T06:01:21;12.80;99.90
1830;DHT22;914;48.118;11.600;2023-04-28T06:03:47;12.70;99.90
1830;DHT22;914;48.118;11.600;2023-04-28T06:06:13;12.70;99.90
1830;DHT22;914;48.118;11.600;2023-04-28T06:08:38;12.70;99.90
1830;DHT22;914;48.118;11.600;2023-04-28T06:11:05;12.40;99.90
1830;DHT22;914;48.118;11.600;2023-04-28T06:13:31;12.40;99.90
1830;DHT22;914;48.118;11.600;2023-04-28T06:15:56;12.60;99.90
1830;DHT22;914;48.118;11.600;2023-04-28T06:18:22;12.60;99.90
1830;DHT22;914;48.118;11.600;2023-04-28T06:20:48;12.80;99.90
1830;DHT22;914;48.118;11.600;2023-04-28T06:23:14;12.90;99.90
1830;DHT22;914;48.118;11.600;2023-04-28T06:25:45;12.90;99.90
1830;DHT22;914;48.118;11.600;2023-04-28T06:28:12;12.80;99.90
1830;DHT22;914;48.118;11.600;2023-04-28T06:30:39;12.80;99.90
1830;DHT22;914;48.118;11.600;2023-04-28T06:33:05;12.70;99.90
1830;DHT22;914;48.118;11.600;2023-04-28T06:35:31;12.70;99.90
1830;DHT22;914;48.118;11.600;2023-04-28T06:38:00;12.70;99.90
1830;DHT22;914;48.118;11.600;2023-04-28T06:40:26;12.70;99.90
1830;DHT22;914;48.118;11.600;2023-04-28T06:42:52;12.80;99.90
1830;DHT22;914;48.118;11.600;2023-04-28T06:45:18;12.90;99.90
1830;DHT22;914;48.118;11.600;2023-04-28T06:47:43;13.00;99.90
1830;DHT22;914;48.118;11.600;2023-04-28T06:50:09;13.00;99.90
1830;DHT22;914;48.118;11.600;2023-04-28T06:52:35;13.10;99.90
1830;DHT22;914;48.118;11.600;2023-04-28T06:55:04;13.20;99.90
1830;DHT22;914;48.118;11.600;2023-04-28T06:57:30;13.40;99.90
1830;DHT22;914;48.118;11.600;2023-04-28T06:59:56;13.50;99.90
1830;DHT22;914;48.118;11.600;2023-04-28T07:02:21;13.60;99.90
1830;DHT22;914;48.118;11.600;2023-04-28T07:04:47;13.80;99.90
1830;DHT22;914;48.118;11.600;2023-04-28T07:07:13;13.90;99.90
1830;DHT22;914;48.118;11.600;2023-04-28T07:09:39;14.00;99.90
1830;DHT22;914;48.118;11.600;2023-04-28T07:12:05;14.10;99.90
1830;DHT22;914;48.118;11.600;2023-04-28T07:14:31;14.10;99.90
1830;DHT22;914;48.118;11.600;2023-04-28T07:16:57;14.20;99.90
1830;DHT22;914;48.118;11.600;2023-04-28T07:19:25;14.00;99.90
1830;DHT22;914;48.118;11.600;2023-04-28T07:21:51;14.00;99.90
1830;DHT22;914;48.118;11.600;2023-04-28T07:24:17;13.80;99.90
1830;DHT22;914;48.118;11.600;2023-04-28T07:26:43;14.10;99.90
1830;DHT22;914;48.118;11.600;2023-04-28T07:29:08;13.90;99.90
1830;DHT22;914;48.118;11.600;2023-04-28T07:31:37;13.70;99.90
1830;DHT22;914;48.118;11.600;2023-04-28T07:34:03;13.60;99.90
1830;DHT22;914;48.118;11.600;2023-04-28T07:36:29;13.70;99.90
1830;DHT22;914;48.118;11.600;2023-04-28T07:38:55;13.70;99.90
1830;DHT22;914;48.118;11.600;2023-04-28T07:41:21;13.80;99.90
1830;DHT22;914;48.118;11.600;2023-04-28T07:43:48;13.80;99.90
1830;DHT22;914;48.118;11.600;2023-04-28T07:46:14;14.20;99.90
1830;DHT22;914;48.118;11.600;2023-04-28T07:48:39;14.20;99.90
1830;DHT22;914;48.118;11.600;2023-04-28T07:51:05;14.00;99.90
1830;DHT22;914;48.118;11.600;2023-04-28T07:53:31;14.00;99.90
1830;DHT22;914;48.118;11.600;2023-04-28T07:55:57;14.10;99.90
1830;DHT22;914;48.118;11.600;2023-04-28T07:58:22;14.00;99.90
1830;DHT22;914;48.118;11.600;2023-04-28T08:00:48;13.90;99.90
1830;DHT22;914;48.118;11.600;2023-04-28T08:03:13;14.20;99.90
1830;DHT22;914;48.118;11.600;2023-04-28T08:05:39;14.40;99.90
1830;DHT22;914;48.118;11.600;2023-04-28T08:08:05;14.20;99.90
1830;DHT22;914;48.118;11.600;2023-04-28T08:10:31;14.30;99.90
1830;DHT22;914;48.118;11.600;2023-04-28T08:12:58;14.20;99.90
1830;DHT22;914;48.118;11.600;2023-04-28T08:15:24;14.20;99.90
1830;DHT22;914;48.118;11.600;2023-04-28T08:17:52;14.10;99.90
1830;DHT22;914;48.118;11.600;2023-04-28T08:20:17;14.30;99.90
1830;DHT22;914;48.118;11.600;2023-04-28T08:22:46;14.10;99.90
1830;DHT22;914;48.118;11.600;2023-04-28T08:25:12;14.10;99.90
1830;DHT22;914;48.118;11.600;2023-04-28T08:27:38;14.20;99.90
1830;DHT22;914;48.118;11.600;2023-04-28T08:30:07;14.20;99.90
1830;DHT22;914;48.118;11.600;2023-04-28T08:32:33;14.00;99.90
1830;DHT22;914;48.118;11.600;2023-04-28T08:34:59;13.90;99.90
1830;DHT22;914;48.118;11.600;2023-04-28T08:37:28;13.70;99.90
1830;DHT22;914;48.118;11.600;2023-04-28T08:39:53;13.80;99.90
1830;DHT22;914;48.118;11.600;2023-04-28T08:42:30;13.90;99.90
1830;DHT22;914;48.118;11.600;2023-04-28T08:44:57;14.00;99.90
1830;DHT22;914;48.118;11.600;2023-04-28T08:47:35;14.00;99.90
1830;DHT22;914;48.118;11.600;2023-04-28T08:50:05;14.10;99.90
1830;DHT22;914;48.118;11.600;2023-04-28T08:52:32;14.10;99.90
1830;DHT22;914;48.118;11.600;2023-04-28T08:55:06;14.30;99.90
1830;DHT22;914;48.118;11.600;2023-04-28T08:57:37;14.50;99.90
1830;DHT22;914;48.118;11.600;2023-04-28T09:00:04;14.50;99.90
1830;DHT22;914;48.118;11.600;2023-04-28T09:02:29;14.50;99.90
1830;DHT22;914;48.118;11.600;2023-04-28T09:04:55;14.40;99.90
1830;DHT22;914;48.118;11.600;2023-04-28T09:07:22;14.40;99.90
1830;DHT22;914;48.118;11.600;2023-04-28T09:09:48;14.50;99.90
1830;DHT22;914;48.118;11.600;2023-04-28T09:12:13;14.40;99.90
1830;DHT22;914;48.118;11.600;2023-04-28T09:14:39;14.40;99.90
1830;DHT22;914;48.118;11.600;2023-04-28T09:17:12;14.40;99.90
1830;DHT22;914;48.118;11.600;2023-04-28T09:19:39;14.30;99.90
1830;DHT22;914;48.118;11.600;2023-04-28T09:22:07;14.50;99.90
1830;DHT22;914;48.118;11.600;2023-04-28T09:24:38;14.30;99.90
1830;DHT22;914;48.118;11.600;2023-04-28T09:27:06;14.30;99.90
1830;DHT22;914;48.118;11.600;2023-04-28T09:29:37;14.40;99.90
1830;DHT22;914;48.118;11.600;2023-04-28T09:32:19;14.20;99.90
1830;DHT22;914;48.118;11.600;2023-04-28T09:34:50;14.20;99.90
1830;DHT22;914;48.118;11.600;2023-04-28T09:37:23;14.10;99.90
1830;DHT22;914;48.118;11.600;2023-04-28T09:39:50;14.10;99.90
1830;DHT22;914;48.118;11.600;2023-04-28T09:45:11;14.00;99.90
1830;DHT22;914;48.118;11.600;2023-04-28T09:47:43;14.00;99.90
1830;DHT22;914;48.118;11.600;2023-04-28T09:50:14;14.00;99.90
1830;DHT22;914;48.118;11.600;2023-04-28T09:52:42;13.90;99.90
1830;DHT22;914;48.118;11.600;2023-04-28T09:55:11;14.00;99.90
1830;DHT22;914;48.118;11.600;2023-04-28T09:57:38;14.10;99.90
1830;DHT22;914;48.118;11.600;2023-04-28T10:00:05;14.00;99.90
1830;DHT22;914;48.118;11.600;2023-04-28T10:02:34;13.80;99.90
1830;DHT22;914;48.118;11.600;2023-04-28T10:05:00;13.70;99.90
1830;DHT22;914;48.118;11.600;2023-04-28T10:07:26;13.70;99.90
1830;DHT22;914;48.118;11.600;2023-04-28T10:09:54;14.10;99.90
1830;DHT22;914;48.118;11.600;2023-04-28T10:12:24;14.00;99.90
1830;DHT22;914;48.118;11.600;2023-04-28T10:14:50;13.90;99.90
1830;DHT22;914;48.118;11.600;2023-04-28T10:17:20;13.90;99.90
1830;DHT22;914;48.118;11.600;2023-04-28T10:19:48;13.90;99.90
1830;DHT22;914;48.118;11.600;2023-04-28T10:27:42;13.60;99.90
1830;DHT22;914;48.118;11.600;2023-04-28T10:32:35;13.60;99.90
1830;DHT22;914;48.118;11.600;2023-04-28T10:38:17;14.00;99.90
1830;DHT22;914;48.118;11.600;2023-04-28T10:40:44;13.90;99.90
1830;DHT22;914;48.118;11.600;2023-04-28T10:43:37;14.00;99.90
1830;DHT22;914;48.118;11.600;2023-04-28T10:46:08;13.80;99.90
1830;DHT22;914;48.118;11.600;2023-04-28T10:56:10;13.80;99.90
1830;DHT22;914;48.118;11.600;2023-04-28T10:58:40;14.00;99.90
1830;DHT22;914;48.118;11.600;2023-04-28T11:06:24;13.60;99.90
1830;DHT22;914;48.118;11.600;2023-04-28T11:11:25;13.50;99.90
1830;DHT22;914;48.118;11.600;2023-04-28T11:13:53;13.60;99.90
1830;DHT22;914;48.118;11.600;2023-04-28T11:16:22;13.60;99.90
1830;DHT22;914;48.118;11.600;2023-04-28T11:19:01;13.50;99.90
1830;DHT22;914;48.118;11.600;2023-04-28T11:21:30;13.40;99.90
1830;DHT22;914;48.118;11.600;2023-04-28T11:23:57;13.50;99.90
1830;DHT22;914;48.118;11.600;2023-04-28T11:26:23;14.00;99.90
1830;DHT22;914;48.118;11.600;2023-04-28T11:28:53;14.00;99.90
1830;DHT22;914;48.118;11.600;2023-04-28T11:31:21;13.60;99.90
1830;DHT22;914;48.118;11.600;2023-04-28T11:36:43;13.50;99.90
1830;DHT22;914;48.118;11.600;2023-04-28T11:39:10;14.20;99.90
1830;DHT22;914;48.118;11.600;2023-04-28T11:41:38;14.10;99.90
1830;DHT22;914;48.118;11.600;2023-04-28T11:44:21;13.90;99.90
1830;DHT22;914;48.118;11.600;2023-04-28T11:46:54;14.20;99.90
1830;DHT22;914;48.118;11.600;2023-04-28T11:49:42;14.40;99.90
1830;DHT22;914;48.118;11.600;2023-04-28T11:52:09;14.60;99.90
1830;DHT22;914;48.118;11.600;2023-04-28T11:54:36;14.30;99.90
1830;DHT22;914;48.118;11.600;2023-04-28T11:57:01;14.10;99.90
1830;DHT22;914;48.118;11.600;2023-04-28T11:59:33;14.30;99.90
1830;DHT22;914;48.118;11.600;2023-04-28T12:02:03;14.10;99.90
1830;DHT22;914;48.118;11.600;2023-04-28T12:07:16;14.30;99.90
1830;DHT22;914;48.118;11.600;2023-04-28T12:10:14;14.20;99.90
1830;DHT22;914;48.118;11.600;2023-04-28T12:12:41;14.30;99.90
1830;DHT22;914;48.118;11.600;2023-04-28T12:15:07;14.30;99.90
1830;DHT22;914;48.118;11.600;2023-04-28T12:17:39;14.50;99.90
1830;DHT22;914;48.118;11.600;2023-04-28T12:20:10;14.50;99.90
1830;DHT22;914;48.118;11.600;2023-04-28T12:22:50;14.50;99.90
1830;DHT22;914;48.118;11.600;2023-04-28T12:25:18;14.30;99.90
1830;DHT22;914;48.118;11.600;2023-04-28T12:28:00;14.60;99.90
1830;DHT22;914;48.118;11.600;2023-04-28T12:30:30;14.70;99.90
1830;DHT22;914;48.118;11.600;2023-04-28T12:32:56;14.70;99.90
1830;DHT22;914;48.118;11.600;2023-04-28T12:35:23;14.70;99.90
1830;DHT22;914;48.118;11.600;2023-04-28T12:37:50;14.80;99.90
1830;DHT22;914;48.118;11.600;2023-04-28T12:40:15;15.10;99.90
1830;DHT22;914;48.118;11.600;2023-04-28T12:42:41;15.40;99.90
1830;DHT22;914;48.118;11.600;2023-04-28T12:45:08;15.10;99.90
1830;DHT22;914;48.118;11.600;2023-04-28T12:47:34;15.00;99.90
1830;DHT22;914;48.118;11.600;2023-04-28T12:50:00;14.90;99.90
1830;DHT22;914;48.118;11.600;2023-04-28T12:52:25;14.80;99.90
1830;DHT22;914;48.118;11.600;2023-04-28T12:54:51;15.00;99.90
1830;DHT22;914;48.118;11.600;2023-04-28T12:57:18;14.90;99.90
1830;DHT22;914;48.118;11.600;2023-04-28T12:59:45;14.80;99.90
1830;DHT22;914;48.118;11.600;2023-04-28T13:02:12;14.70;99.90
1830;DHT22;914;48.118;11.600;2023-04-28T13:04:39;14.80;99.90
1830;DHT22;914;48.118;11.600;2023-04-28T13:07:07;14.90;99.90
1830;DHT22;914;48.118;11.600;2023-04-28T13:09:33;15.10;99.90
1830;DHT22;914;48.118;11.600;2023-04-28T13:12:00;15.00;99.90
1830;DHT22;914;48.118;11.600;2023-04-28T13:14:27;14.90;99.90
1830;DHT22;914;48.118;11.600;2023-04-28T13:16:53;15.00;99.90
1830;DHT22;914;48.118;11.600;2023-04-28T13:19:19;15.40;99.90
1830;DHT22;914;48.118;11.600;2023-04-28T13:21:44;15.40;99.90
1830;DHT22;914;48.118;11.600;2023-04-28T13:24:11;15.40;99.90
1830;DHT22;914;48.118;11.600;2023-04-28T13:26:38;15.70;99.90
1830;DHT22;914;48.118;11.600;2023-04-28T13:29:04;15.80;99.90
1830;DHT22;914;48.118;11.600;2023-04-28T13:31:30;15.70;99.90
1830;DHT22;914;48.118;11.600;2023-04-28T13:33:57;15.60;99.90
1830;DHT22;914;48.118;11.600;2023-04-28T13:36:27;15.50;99.90
1830;DHT22;914;48.118;11.600;2023-04-28T13:38:54;15.90;99.90
1830;DHT22;914;48.118;11.600;2023-04-28T13:41:20;15.80;99.90
1830;DHT22;914;48.118;11.600;2023-04-28T13:43:46;16.10;99.90
1830;DHT22;914;48.118;11.600;2023-04-28T13:46:12;16.20;99.90
1830;DHT22;914;48.118;11.600;2023-04-28T13:48:39;16.20;99.90
1830;DHT22;914;48.118;11.600;2023-04-28T13:51:06;16.30;99.90
1830;DHT22;914;48.118;11.600;2023-04-28T13:53:33;16.40;99.90
1830;DHT22;914;48.118;11.600;2023-04-28T13:55:59;16.40;99.90
1830;DHT22;914;48.118;11.600;2023-04-28T13:58:27;16.40;99.90
1830;DHT22;914;48.118;11.600;2023-04-28T14:00:53;16.60;99.90
1830;DHT22;914;48.118;11.600;2023-04-28T14:03:23;16.50;99.90
1830;DHT22;914;48.118;11.600;2023-04-28T14:05:52;16.40;99.90
1830;DHT22;914;48.118;11.600;2023-04-28T14:08:18;16.60;99.90
1830;DHT22;914;48.118;11.600;2023-04-28T14:10:44;17.00;99.90
1830;DHT22;914;48.118;11.600;2023-04-28T14:13:10;17.30;99.90
1830;DHT22;914;48.118;11.600;2023-04-28T14:15:36;16.90;99.90
1830;DHT22;914;48.118;11.600;2023-04-28T14:18:02;17.10;99.90
1830;DHT22;914;48.118;11.600;2023-04-28T14:20:28;17.20;99.90
1830;DHT22;914;48.118;11.600;2023-04-28T14:22:53;17.00;99.90
1830;DHT22;914;48.118;11.600;2023-04-28T14:25:19;17.00;99.90
1830;DHT22;914;48.118;11.600;2023-04-28T14:27:48;16.90;99.90
1830;DHT22;914;48.118;11.600;2023-04-28T14:30:15;16.80;99.90
1830;DHT22;914;48.118;11.600;2023-04-28T14:32:40;16.70;99.90
1830;DHT22;914;48.118;11.600;2023-04-28T14:35:07;17.00;99.90
1830;DHT22;914;48.118;11.600;2023-04-28T14:37:33;16.80;99.90
1830;DHT22;914;48.118;11.600;2023-04-28T14:39:59;16.60;99.90
1830;DHT22;914;48.118;11.600;2023-04-28T14:42:30;16.50;99.90
1830;DHT22;914;48.118;11.600;2023-04-28T14:44:57;16.80;99.90
1830;DHT22;914;48.118;11.600;2023-04-28T14:47:23;16.60;99.90
1830;DHT22;914;48.118;11.600;2023-04-28T14:49:49;16.40;99.90
1830;DHT22;914;48.118;11.600;2023-04-28T14:52:18;16.40;99.90
1830;DHT22;914;48.118;11.600;2023-04-28T14:54:44;16.60;99.90
1830;DHT22;914;48.118;11.600;2023-04-28T14:57:10;16.60;99.90
1830;DHT22;914;48.118;11.600;2023-04-28T14:59:35;16.40;99.90
1830;DHT22;914;48.118;11.600;2023-04-28T15:02:01;16.30;99.90
1830;DHT22;914;48.118;11.600;2023-04-28T15:04:27;16.50;99.90
1830;DHT22;914;48.118;11.600;2023-04-28T15:06:55;16.50;99.90
1830;DHT22;914;48.118;11.600;2023-04-28T15:09:21;16.60;99.90
1830;DHT22;914;48.118;11.600;2023-04-28T15:11:48;16.70;99.90
1830;DHT22;914;48.118;11.600;2023-04-28T15:14:14;16.90;99.90
1830;DHT22;914;48.118;11.600;2023-04-28T15:16:39;16.70;99.90
1830;DHT22;914;48.118;11.600;2023-04-28T15:19:05;16.60;99.90
1830;DHT22;914;48.118;11.600;2023-04-28T15:21:31;16.50;99.90
1830;DHT22;914;48.118;11.600;2023-04-28T15:23:57;16.20;99.90
1830;DHT22;914;48.118;11.600;2023-04-28T15:26:24;16.20;99.90
1830;DHT22;914;48.118;11.600;2023-04-28T15:28:53;16.30;99.90
1830;DHT22;914;48.118;11.600;2023-04-28T15:31:20;16.20;99.90
1830;DHT22;914;48.118;11.600;2023-04-28T15:33:48;16.70;99.90
1830;DHT22;914;48.118;11.600;2023-04-28T15:36:14;16.50;99.90
1830;DHT22;914;48.118;11.600;2023-04-28T15:38:42;16.40;99.90
1830;DHT22;914;48.118;11.600;2023-04-28T15:41:12;16.30;99.90
1830;DHT22;914;48.118;11.600;2023-04-28T15:43:39;16.20;99.90
1830;DHT22;914;48.118;11.600;2023-04-28T15:46:05;16.30;99.90
1830;DHT22;914;48.118;11.600;2023-04-28T15:48:35;16.20;99.90
1830;DHT22;914;48.118;11.600;2023-04-28T15:51:03;16.10;99.90
1830;DHT22;914;48.118;11.600;2023-04-28T15:53:29;16.10;99.90
1830;DHT22;914;48.118;11.600;2023-04-28T15:55:56;16.20;99.90
1830;DHT22;914;48.118;11.600;2023-04-28T15:58:22;16.00;99.90
1830;DHT22;914;48.118;11.600;2023-04-28T16:00:47;15.90;99.90
1830;DHT22;914;48.118;11.600;2023-04-28T16:03:13;15.90;99.90
1830;DHT22;914;48.118;11.600;2023-04-28T16:05:39;15.90;99.90
1830;DHT22;914;48.118;11.600;2023-04-28T16:08:05;16.00;99.90
1830;DHT22;914;48.118;11.600;2023-04-28T16:10:31;16.20;99.90
1830;DHT22;914;48.118;11.600;2023-04-28T16:12:56;16.10;99.90
1830;DHT22;914;48.118;11.600;2023-04-28T16:15:22;16.10;99.90
1830;DHT22;914;48.118;11.600;2023-04-28T16:17:48;16.10;99.90
1830;DHT22;914;48.118;11.600;2023-04-28T16:20:15;16.20;99.90
1830;DHT22;914;48.118;11.600;2023-04-28T16:22:41;16.20;99.90
1830;DHT22;914;48.118;11.600;2023-04-28T16:25:07;16.30;99.90
1830;DHT22;914;48.118;11.600;2023-04-28T16:27:34;16.40;99.90
1830;DHT22;914;48.118;11.600;2023-04-28T16:30:00;16.40;99.90
1830;DHT22;914;48.118;11.600;2023-04-28T16:32:26;16.70;99.90
1830;DHT22;914;48.118;11.600;2023-04-28T16:34:51;16.80;99.90